Terminal Aerodrome Forecast
Issued by NWS Northern Indiana

Home | Current Version | Previous Version | Text Only | Print | Product List | Glossary On
Versions: 1 2 3 4 5 6 7 8 9 10 11 12 13 14 15
486
FTUS43 KIWX 230535
TAFFWA
TAF
KFWA 230535Z 2306/2406 20008KT P6SM SCT030
     FM230900 23008KT 5SM BR BKN020
     FM231500 27005KT P6SM BKN035
     FM232100 03005KT P6SM VCSH OVC040
     FM240200 09010KT 3SM -SHRA BR BKN020=

USA.gov is the U.S. government's official web portal to all federal, state and local government web resources and services.